Time;durP1;ratioP1;P1;durP2;ratioP2;P2;SDS_P1;SDS_P2;PMS_P1;PMS_P2;Temp;Humidity;BMP_temperature;BMP_pressure;BME280_temperature;BME280_humidity;BME280_pressure;Samples;Min_cycle;Max_cycle;Signal;HPM_P1;HPM_P2
2022/02/26 00:01:21;;;;;;;31.63;16.37;;;;;;;2.71;74.17;99869.71;1702766;82;21104;-58
2022/02/26 00:03:48;;;;;;;28.27;14.33;;;;;;;2.74;74.13;99874.96;1698345;82;21459;-58
2022/02/26 00:06:14;;;;;;;20.63;13.37;;;;;;;2.77;74.09;99868.28;1708961;82;21143;-58
2022/02/26 00:08:40;;;;;;;23.60;12.13;;;;;;;2.81;74.08;99873.97;1702619;82;21342;-58
2022/02/26 00:11:07;;;;;;;25.80;13.07;;;;;;;2.86;74.11;99882.77;1705934;82;21104;-58
2022/02/26 00:13:33;;;;;;;22.50;12.90;;;;;;;2.91;74.09;99882.68;1704631;82;21472;-58
2022/02/26 00:15:59;;;;;;;24.50;13.70;;;;;;;2.94;74.12;99882.20;1703275;82;21132;-58
2022/02/26 00:18:26;;;;;;;20.70;12.80;;;;;;;2.98;74.12;99883.89;1706378;82;21481;-58
2022/02/26 00:20:52;;;;;;;24.30;13.37;;;;;;;3.04;74.06;99890.92;1700556;82;21824;-58
2022/02/26 00:23:19;;;;;;;20.67;13.07;;;;;;;3.04;74.03;99889.14;1702523;82;21565;-58
2022/02/26 00:25:45;;;;;;;20.53;12.37;;;;;;;3.06;74.10;99894.89;1707213;82;21065;-58
2022/02/26 00:28:11;;;;;;;18.07;11.37;;;;;;;3.05;74.12;99896.67;1708855;82;22194;-57
2022/02/26 00:30:37;;;;;;;23.90;11.37;;;;;;;3.04;74.23;99900.22;1707542;82;21338;-57
2022/02/26 00:33:04;;;;;;;14.53;8.97;;;;;;;3.03;74.40;99903.33;1704058;82;21037;-57
2022/02/26 00:35:31;;;;;;;16.67;10.23;;;;;;;3.06;74.45;99905.52;1709056;82;21275;-57
2022/02/26 00:37:59;;;;;;;13.53;8.63;;;;;;;3.08;74.56;99901.91;1706197;82;21032;-58
2022/02/26 00:40:26;;;;;;;14.67;8.97;;;;;;;3.11;74.60;99905.88;1708003;82;22603;-57
2022/02/26 00:42:52;;;;;;;16.43;8.47;;;;;;;3.15;74.63;99906.23;1709360;82;21041;-57
2022/02/26 00:45:18;;;;;;;15.27;8.33;;;;;;;3.18;74.71;99910.63;1710973;81;21487;-58
2022/02/26 00:47:44;;;;;;;15.80;8.47;;;;;;;3.19;74.67;99903.97;1710425;81;22155;-57
2022/02/26 00:50:12;;;;;;;15.73;8.90;;;;;;;3.22;74.66;99907.03;1708382;81;21094;-56
2022/02/26 00:52:38;;;;;;;17.10;9.60;;;;;;;3.23;74.67;99911.45;1707358;81;21962;-57
2022/02/26 00:55:06;;;;;;;14.97;8.57;;;;;;;3.19;74.70;99903.97;1710200;81;21452;-57
2022/02/26 00:57:33;;;;;;;16.90;8.07;;;;;;;3.18;74.72;99910.19;1711198;81;21066;-57
2022/02/26 00:59:59;;;;;;;15.53;8.57;;;;;;;3.18;74.77;99902.20;1711615;81;21485;-58
2022/02/26 01:02:26;;;;;;;14.17;6.57;;;;;;;3.17;74.85;99919.06;1708795;81;22460;-57
2022/02/26 01:04:52;;;;;;;12.93;6.77;;;;;;;3.18;74.95;99920.83;1710650;81;21881;-58
2022/02/26 01:07:19;;;;;;;14.70;7.70;;;;;;;3.21;74.99;99918.58;1692362;82;21161;-57
2022/02/26 01:09:46;;;;;;;10.23;7.20;;;;;;;3.23;75.00;99929.59;1710697;81;22359;-57
2022/02/26 01:12:12;;;;;;;12.80;6.93;;;;;;;3.25;74.94;99933.56;1711254;81;21629;-57
2022/02/26 01:14:40;;;;;;;10.73;6.57;;;;;;;3.25;74.94;99930.45;1707813;81;21135;-57
2022/02/26 01:17:08;;;;;;;9.57;5.83;;;;;;;3.25;74.93;99930.91;1710651;81;21093;-56
2022/02/26 01:19:35;;;;;;;11.13;6.10;;;;;;;3.21;74.93;99935.42;1700495;81;21496;-57
2022/02/26 01:22:03;;;;;;;8.97;5.03;;;;;;;3.16;75.04;99937.70;1712899;81;21495;-56
2022/02/26 01:24:29;;;;;;;6.40;3.93;;;;;;;3.11;75.09;99947.55;1712542;81;20994;-56
2022/02/26 01:26:56;;;;;;;6.70;3.43;;;;;;;3.08;75.19;99944.92;1708439;81;21074;-56
2022/02/26 01:29:22;;;;;;;5.50;3.33;;;;;;;3.05;75.28;99948.52;1707401;81;21516;-57
2022/02/26 01:31:49;;;;;;;4.27;2.70;;;;;;;3.06;75.36;99942.31;1709413;81;21382;-57
2022/02/26 01:34:15;;;;;;;8.50;3.23;;;;;;;3.10;75.43;99947.99;1706210;81;21511;-57
2022/02/26 01:36:41;;;;;;;5.67;2.87;;;;;;;3.13;75.44;99950.62;1706805;81;21541;-58
2022/02/26 01:39:09;;;;;;;4.17;2.70;;;;;;;3.14;75.41;99943.52;1710545;81;21067;-57
2022/02/26 01:41:36;;;;;;;8.53;3.97;;;;;;;3.14;75.40;99956.81;1713589;81;22278;-57
2022/02/26 01:44:03;;;;;;;5.27;3.73;;;;;;;3.12;75.41;99953.30;1714860;81;20915;-58
2022/02/26 01:46:31;;;;;;;5.87;3.60;;;;;;;3.10;75.38;99957.75;1714764;81;20896;-58
2022/02/26 01:48:57;;;;;;;6.07;2.87;;;;;;;3.06;75.47;99964.03;1712427;81;20868;-58
2022/02/26 01:51:24;;;;;;;8.23;2.60;;;;;;;3.01;75.54;99955.66;1713750;81;21992;-57
2022/02/26 01:53:50;;;;;;;5.70;2.70;;;;;;;3.00;75.62;99959.66;1716102;81;21354;-57
2022/02/26 01:56:17;;;;;;;5.33;2.87;;;;;;;2.98;75.70;99964.99;1716379;81;21560;-57
2022/02/26 01:58:43;;;;;;;8.10;2.50;;;;;;;2.99;75.77;99964.55;1712548;81;21571;-57
2022/02/26 02:01:11;;;;;;;5.03;2.50;;;;;;;3.02;75.83;99968.50;1712147;81;20943;-57
2022/02/26 02:03:38;;;;;;;6.83;3.03;;;;;;;3.03;75.80;99971.14;1714695;81;20923;-57
2022/02/26 02:06:04;;;;;;;5.83;3.90;;;;;;;3.06;75.79;99977.33;1711669;81;21176;-57
2022/02/26 02:08:31;;;;;;;9.07;3.50;;;;;;;3.07;75.78;99978.61;1714814;81;20907;-57
2022/02/26 02:10:57;;;;;;;6.73;3.43;;;;;;;3.04;75.75;99985.33;1711886;81;20967;-57
2022/02/26 02:13:24;;;;;;;6.67;3.83;;;;;;;3.00;75.77;99980.48;1711777;81;20967;-57
2022/02/26 02:15:52;;;;;;;6.67;2.87;;;;;;;2.96;75.79;99996.52;1711992;81;21334;-57
2022/02/26 02:18:19;;;;;;;5.13;3.27;;;;;;;2.92;75.89;99998.33;1710314;81;21154;-58
2022/02/26 02:20:45;;;;;;;5.50;2.90;;;;;;;2.91;75.94;100004.55;1710141;81;21105;-58
2022/02/26 02:23:12;;;;;;;6.83;2.67;;;;;;;2.90;76.02;100001.45;1712091;81;21412;-57
2022/02/26 02:25:39;;;;;;;5.43;3.03;;;;;;;2.89;76.08;99990.86;1707672;81;21256;-57
2022/02/26 02:28:06;;;;;;;6.73;3.30;;;;;;;2.92;76.11;100002.31;1707531;81;21069;-59
2022/02/26 02:30:33;;;;;;;10.33;3.53;;;;;;;2.94;76.10;100003.19;1712281;81;21134;-56
2022/02/26 02:33:00;;;;;;;6.93;3.60;;;;;;;2.97;76.10;100003.16;1714112;81;21080;-59
2022/02/26 02:35:30;;;;;;;8.10;4.00;;;;;;;2.98;76.07;100002.67;1709570;81;21062;-56
2022/02/26 02:37:59;;;;;;;6.33;4.13;;;;;;;2.98;76.01;100011.98;1710064;81;21689;-57
2022/02/26 02:40:25;;;;;;;5.93;3.17;;;;;;;2.96;76.00;100011.14;1710751;81;20971;-57
2022/02/26 02:42:52;;;;;;;6.07;3.30;;;;;;;2.89;75.97;100007.66;1713585;81;21101;-57
2022/02/26 02:45:19;;;;;;;4.50;2.83;;;;;;;2.86;76.01;100009.50;1711193;81;20987;-57
2022/02/26 02:47:46;;;;;;;6.00;3.27;;;;;;;2.82;76.03;100008.65;1711476;81;21061;-58
2022/02/26 02:50:12;;;;;;;3.77;2.10;;;;;;;2.80;76.11;100015.78;1707801;81;21398;-58
2022/02/26 02:52:39;;;;;;;7.63;2.80;;;;;;;2.77;76.17;100015.81;1710778;81;21092;-58
2022/02/26 02:55:07;;;;;;;7.13;2.77;;;;;;;2.76;76.24;100016.71;1709655;81;21360;-58
2022/02/26 02:57:33;;;;;;;6.37;3.50;;;;;;;2.77;76.31;100018.92;1713040;81;20950;-58
2022/02/26 03:00:01;;;;;;;5.07;3.50;;;;;;;2.79;76.33;100025.11;1709076;81;21062;-58
2022/02/26 03:02:27;;;;;;;8.07;3.63;;;;;;;2.77;76.27;100017.59;1709320;81;21522;-58
2022/02/26 03:04:53;;;;;;;5.87;3.73;;;;;;;2.75;76.29;100029.56;1708137;81;21559;-58
2022/02/26 03:07:20;;;;;;;6.20;3.57;;;;;;;2.72;76.31;100032.28;1708099;81;21138;-58
2022/02/26 03:09:46;;;;;;;6.23;4.03;;;;;;;2.68;76.36;100034.53;1710741;81;21061;-57
2022/02/26 03:12:13;;;;;;;5.47;2.90;;;;;;;2.62;76.37;100029.30;1712666;81;21070;-58
2022/02/26 03:14:39;;;;;;;6.13;2.70;;;;;;;2.59;76.43;100031.53;1710208;81;21057;-58
2022/02/26 03:17:05;;;;;;;5.80;2.23;;;;;;;2.56;76.52;100035.55;1708294;81;21117;-58
2022/02/26 03:19:32;;;;;;;7.87;3.23;;;;;;;2.56;76.63;100035.98;1710970;81;21162;-58
2022/02/26 03:21:58;;;;;;;4.37;2.67;;;;;;;2.57;76.66;100043.06;1708582;81;21030;-57
2022/02/26 03:24:24;;;;;;;5.93;2.47;;;;;;;2.59;76.79;100046.59;1709083;81;22464;-58
2022/02/26 03:26:56;;;;;;;5.80;2.67;;;;;;;2.59;76.81;100050.14;1707980;81;21584;-58
2022/02/26 03:29:19;;;;;;;6.20;3.27;;;;;;;2.59;76.81;100049.25;1709960;81;21133;-56
2022/02/26 03:31:46;;;;;;;6.37;3.30;;;;;;;2.56;76.85;100055.92;1706887;81;21101;-58
2022/02/26 03:34:12;;;;;;;5.50;3.37;;;;;;;2.51;76.83;100059.09;1706808;81;21097;-57
2022/02/26 03:36:39;;;;;;;5.80;2.80;;;;;;;2.46;76.93;100066.25;1711190;81;21176;-58
2022/02/26 03:39:06;;;;;;;5.87;2.53;;;;;;;2.42;76.98;100063.17;1710852;81;21019;-57
2022/02/26 03:41:32;;;;;;;3.50;1.90;;;;;;;2.37;77.05;100072.53;1713539;81;21101;-58
2022/02/26 03:43:58;;;;;;;3.40;2.57;;;;;;;2.35;77.13;100070.78;1717775;80;21487;-58
2022/02/26 03:46:24;;;;;;;3.43;1.70;;;;;;;2.34;77.28;100075.20;1728677;80;21071;-57
2022/02/26 03:48:51;;;;;;;3.57;2.33;;;;;;;2.35;77.32;100076.09;1725197;80;21041;-57
2022/02/26 03:51:18;;;;;;;4.53;2.03;;;;;;;2.35;77.37;100080.08;1725369;80;21046;-57
2022/02/26 03:53:44;;;;;;;4.10;2.30;;;;;;;2.34;77.29;100079.19;1722695;80;21116;-58
2022/02/26 03:56:11;;;;;;;2.77;2.13;;;;;;;2.33;77.27;100084.52;1725456;80;21126;-57
2022/02/26 03:58:39;;;;;;;4.43;2.97;;;;;;;2.30;77.30;100097.84;1729526;80;20930;-59
2022/02/26 04:01:05;;;;;;;4.30;2.53;;;;;;;2.25;77.38;100096.55;1723594;80;21087;-57
2022/02/26 04:03:32;;;;;;;6.13;3.13;;;;;;;2.20;77.45;100102.36;1726098;80;21081;-56
2022/02/26 04:05:58;;;;;;;3.40;2.47;;;;;;;2.13;77.53;100100.18;1723739;80;21081;-56
2022/02/26 04:08:25;;;;;;;4.93;2.00;;;;;;;2.11;77.58;100103.77;1725679;80;22118;-54
2022/02/26 04:10:51;;;;;;;3.63;1.70;;;;;;;2.08;77.64;100115.73;1723985;80;21049;-57
2022/02/26 04:13:17;;;;;;;3.70;2.67;;;;;;;2.03;77.70;100113.12;1723906;80;21844;-57
2022/02/26 04:15:43;;;;;;;2.47;1.70;;;;;;;2.00;77.79;100122.43;1724423;80;21499;-56
2022/02/26 04:18:10;;;;;;;4.47;2.70;;;;;;;2.00;77.80;100132.17;1724062;80;21475;-56
2022/02/26 04:20:36;;;;;;;4.17;2.37;;;;;;;1.96;77.68;100136.61;1727587;80;22345;-55
2022/02/26 04:23:03;;;;;;;3.60;2.20;;;;;;;1.92;77.65;100134.88;1722520;80;21136;-53
2022/02/26 04:25:30;;;;;;;4.03;2.20;;;;;;;1.86;77.72;100145.11;1723334;82;20911;-53
2022/02/26 04:27:56;;;;;;;4.13;2.57;;;;;;;1.82;77.72;100147.78;1728561;80;20964;-55
2022/02/26 04:30:23;;;;;;;4.93;2.50;;;;;;;1.76;77.92;100153.14;1725963;80;21428;-55
2022/02/26 04:32:49;;;;;;;7.27;2.63;;;;;;;1.73;78.08;100160.66;1721478;80;21508;-56
2022/02/26 04:35:15;;;;;;;5.80;2.43;;;;;;;1.72;78.31;100166.86;1722936;80;22630;-55
2022/02/26 04:37:42;;;;;;;5.23;3.23;;;;;;;1.74;78.52;100165.53;1723605;80;22247;-54
2022/02/26 04:40:10;;;;;;;6.70;2.83;;;;;;;1.76;78.60;100182.33;1722314;80;21630;-56
2022/02/26 04:42:37;;;;;;;5.03;3.53;;;;;;;1.74;78.77;100186.31;1726539;80;20987;-56
2022/02/26 04:45:08;;;;;;;7.20;4.10;;;;;;;1.75;78.86;100191.18;1719167;80;21122;-56
2022/02/26 04:47:35;;;;;;;4.73;3.10;;;;;;;1.74;78.96;100197.38;1711115;81;21156;-54
2022/02/26 04:50:01;;;;;;;7.57;4.30;;;;;;;1.74;79.10;100202.68;1714786;81;20962;-55
2022/02/26 04:52:27;;;;;;;5.30;3.50;;;;;;;1.73;79.23;100209.77;1711732;81;20900;-55
2022/02/26 04:54:54;;;;;;;6.47;2.80;;;;;;;1.73;79.33;100208.44;1711018;81;21472;-54
2022/02/26 04:57:20;;;;;;;7.93;3.50;;;;;;;1.74;79.50;100211.53;1712302;81;21379;-54
2022/02/26 04:59:46;;;;;;;5.77;3.07;;;;;;;1.76;79.64;100215.06;1715821;81;21460;-54
2022/02/26 05:02:13;;;;;;;7.73;4.20;;;;;;;1.78;79.67;100214.62;1714723;81;20919;-58
2022/02/26 05:04:39;;;;;;;10.80;3.67;;;;;;;1.81;79.73;100221.66;1712513;81;20959;-56
2022/02/26 05:07:06;;;;;;;6.70;4.63;;;;;;;1.84;79.80;100233.16;1712517;81;21694;-54
2022/02/26 05:09:32;;;;;;;7.77;4.97;;;;;;;1.86;79.83;100230.50;1713275;81;21432;-55
2022/02/26 05:11:58;;;;;;;7.83;4.77;;;;;;;1.86;79.88;100238.46;1711039;81;21465;-55
2022/02/26 05:14:26;;;;;;;10.47;5.57;;;;;;;1.84;79.92;100242.89;1713647;81;20887;-55
2022/02/26 05:16:52;;;;;;;8.53;5.27;;;;;;;1.81;79.99;100242.89;1716781;81;20911;-55
2022/02/26 05:19:19;;;;;;;10.17;5.67;;;;;;;1.74;80.19;100240.72;1711354;81;20928;-56
2022/02/26 05:21:45;;;;;;;9.90;6.30;;;;;;;1.72;80.38;100248.25;1710919;82;21074;-54
2022/02/26 05:24:11;;;;;;;7.87;5.43;;;;;;;1.72;80.55;100242.94;1713158;81;21034;-56
2022/02/26 05:26:37;;;;;;;11.03;6.07;;;;;;;1.74;80.69;100247.36;1715265;81;20954;-54
2022/02/26 05:29:03;;;;;;;10.93;6.17;;;;;;;1.76;80.80;100250.89;1663805;84;20939;-57
2022/02/26 05:31:30;;;;;;;14.97;6.90;;;;;;;1.78;80.83;100251.78;1672602;83;20982;-57
2022/02/26 05:33:56;;;;;;;14.40;8.30;;;;;;;1.81;80.86;100257.49;1674045;83;21098;-54
2022/02/26 05:36:22;;;;;;;13.20;6.77;;;;;;;1.79;80.90;100261.48;1674266;83;20975;-54
2022/02/26 05:38:49;;;;;;;8.93;6.03;;;;;;;1.78;80.94;100260.19;1673208;83;22329;-56
2022/02/26 05:41:16;;;;;;;13.47;7.13;;;;;;;1.78;81.04;100266.82;1675314;83;21694;-56
2022/02/26 05:43:42;;;;;;;8.50;5.53;;;;;;;1.81;81.17;100266.34;1675983;83;21077;-55
2022/02/26 05:46:09;;;;;;;10.00;6.57;;;;;;;1.83;81.11;100265.89;1678040;83;21097;-56
2022/02/26 05:48:35;;;;;;;13.27;6.93;;;;;;;1.86;81.19;100271.64;1662989;83;21208;-56
2022/02/26 05:51:01;;;;;;;10.17;6.57;;;;;;;1.86;81.17;100276.95;1684131;82;21249;-55
2022/02/26 05:53:29;;;;;;;14.60;7.37;;;;;;;1.84;81.25;100275.63;1672390;83;21611;-55
2022/02/26 05:55:55;;;;;;;11.17;7.53;;;;;;;1.84;81.29;100283.59;1677160;83;23007;-56
2022/02/26 05:58:22;;;;;;;11.00;7.17;;;;;;;1.83;81.31;100283.16;1690163;82;20997;-56
2022/02/26 06:00:51;;;;;;;10.43;7.33;;;;;;;1.85;81.38;100277.40;1676791;83;20997;-56
2022/02/26 06:03:18;;;;;;;16.07;6.33;;;;;;;1.88;81.33;100285.77;1659569;83;21099;-56
2022/02/26 06:05:46;;;;;;;10.33;5.00;;;;;;;1.92;81.34;100286.65;1658109;83;21081;-56
2022/02/26 06:08:12;;;;;;;9.97;6.13;;;;;;;1.96;81.31;100285.28;1657696;83;21178;-55
2022/02/26 06:10:39;;;;;;;9.77;6.83;;;;;;;2.03;81.32;100288.81;1658891;83;21137;-56
2022/02/26 06:13:05;;;;;;;8.33;5.87;;;;;;;2.11;81.27;100292.31;1656988;83;21075;-56
2022/02/26 06:15:32;;;;;;;10.67;6.77;;;;;;;2.14;81.10;100302.89;1659448;83;21265;-57
2022/02/26 06:17:58;;;;;;;14.67;8.20;;;;;;;2.16;80.88;100307.76;1662962;83;20896;-56
2022/02/26 06:20:24;;;;;;;11.53;6.60;;;;;;;2.14;80.80;100309.53;1661632;83;20940;-57
2022/02/26 06:22:51;;;;;;;9.53;6.40;;;;;;;2.13;80.95;100309.09;1659914;83;21110;-55
2022/02/26 06:25:19;;;;;;;9.67;5.57;;;;;;;2.16;80.92;100314.40;1659080;83;21062;-55
2022/02/26 06:27:45;;;;;;;10.53;6.00;;;;;;;2.22;80.79;100317.90;1658390;83;21423;-56
2022/02/26 06:30:13;;;;;;;9.63;5.90;;;;;;;2.26;80.70;100320.11;1659708;83;21528;-56
2022/02/26 06:32:39;;;;;;;9.03;4.83;;;;;;;2.31;80.72;100325.37;1660707;83;21073;-57
2022/02/26 06:35:09;;;;;;;11.40;5.97;;;;;;;2.40;80.64;100324.87;1661923;83;21165;-55
2022/02/26 06:37:36;;;;;;;9.23;5.27;;;;;;;2.46;80.21;100327.97;1657561;83;21118;-57
2022/02/26 06:40:04;;;;;;;13.00;5.93;;;;;;;2.45;80.00;100336.38;1656717;85;21057;-56
2022/02/26 06:42:30;;;;;;;10.37;6.27;;;;;;;2.46;80.10;100337.27;1658543;83;21118;-56
2022/02/26 06:44:57;;;;;;;9.43;5.13;;;;;;;2.47;79.94;100339.89;1663201;84;21267;-55
2022/02/26 06:47:23;;;;;;;9.37;6.37;;;;;;;2.51;79.88;100349.62;1677444;84;21637;-57
2022/02/26 06:49:49;;;;;;;10.10;5.87;;;;;;;2.54;79.76;100350.05;1696728;82;22518;-55
2022/02/26 06:52:17;;;;;;;8.13;4.87;;;;;;;2.55;79.52;100352.67;1676669;83;21717;-56
2022/02/26 06:54:43;;;;;;;8.60;5.10;;;;;;;2.56;79.56;100354.89;1680120;83;21139;-56
2022/02/26 06:57:09;;;;;;;5.93;4.50;;;;;;;2.61;79.56;100350.00;1674413;83;21404;-56
2022/02/26 06:59:36;;;;;;;5.30;3.73;;;;;;;2.71;79.50;100352.16;1668008;83;21567;-55
2022/02/26 07:02:03;;;;;;;7.73;3.97;;;;;;;2.81;79.29;100358.27;1696350;83;21155;-56
2022/02/26 07:04:30;;;;;;;7.00;3.97;;;;;;;2.89;78.90;100357.31;1686093;82;21093;-55
2022/02/26 07:06:57;;;;;;;10.80;5.20;;;;;;;2.94;78.61;100355.97;1680212;83;21122;-54
2022/02/26 07:09:23;;;;;;;13.63;5.70;;;;;;;2.98;78.45;100360.34;1695424;83;21159;-53
2022/02/26 07:11:50;;;;;;;8.30;4.47;;;;;;;3.05;78.39;100370.06;1694668;83;21158;-53
2022/02/26 07:14:17;;;;;;;10.03;4.60;;;;;;;3.11;78.04;100371.34;1681540;83;21101;-54
2022/02/26 07:16:44;;;;;;;10.73;4.70;;;;;;;3.14;77.46;100378.42;1696549;82;21025;-53
2022/02/26 07:19:10;;;;;;;6.33;3.47;;;;;;;3.17;77.23;100385.02;1674382;83;21115;-55
2022/02/26 07:21:36;;;;;;;5.33;3.10;;;;;;;3.21;76.77;100385.00;1678705;83;21126;-56
2022/02/26 07:24:03;;;;;;;6.33;2.60;;;;;;;3.24;76.73;100386.28;1691552;82;22341;-57
2022/02/26 07:26:30;;;;;;;4.70;3.03;;;;;;;3.31;75.63;100390.69;1697944;82;21307;-55
2022/02/26 07:28:57;;;;;;;7.20;3.33;;;;;;;3.32;74.90;100388.88;1700548;82;22186;-55
2022/02/26 07:31:24;;;;;;;5.67;2.87;;;;;;;3.33;74.88;100395.97;1698843;82;20891;-55
2022/02/26 07:33:51;;;;;;;7.17;3.20;;;;;;;3.38;74.93;100395.50;1684594;83;21253;-55
2022/02/26 07:36:17;;;;;;;6.80;3.20;;;;;;;3.43;74.31;100403.86;1680636;83;20985;-54
2022/02/26 07:41:45;;;;;;;3.77;1.50;;;;;;;3.57;73.88;100394.44;1790307;78;26828;-57
2022/02/26 07:44:12;;;;;;;3.33;1.87;;;;;;;3.63;72.41;100395.70;1752285;79;21105;-57
2022/02/26 07:46:39;;;;;;;3.40;1.70;;;;;;;3.70;71.88;100398.73;1757955;79;21163;-56
2022/02/26 07:49:05;;;;;;;3.93;1.60;;;;;;;3.78;71.26;100399.98;1775427;80;21494;-57
2022/02/26 07:51:32;;;;;;;4.03;1.40;;;;;;;3.86;70.54;100402.11;1759597;79;21526;-56
2022/02/26 07:53:58;;;;;;;5.53;1.40;;;;;;;3.95;70.11;100402.45;1761109;79;21019;-57
2022/02/26 07:56:24;;;;;;;5.43;2.43;;;;;;;4.00;67.73;100416.59;1749689;80;21232;-55
2022/02/26 07:58:51;;;;;;;5.10;1.27;;;;;;;4.04;67.62;100407.69;1715771;81;21215;-57
2022/02/26 08:01:18;;;;;;;6.80;1.20;;;;;;;4.07;67.62;100405.00;1732231;81;21118;-57
2022/02/26 08:03:44;;;;;;;5.13;1.60;;;;;;;4.10;66.78;100402.27;1729672;81;21134;-56
2022/02/26 08:06:10;;;;;;;2.40;1.00;;;;;;;4.14;65.45;100418.67;1719401;81;21106;-56
2022/02/26 08:08:37;;;;;;;1.63;1.00;;;;;;;4.14;65.42;100414.23;1725790;81;21093;-58
2022/02/26 08:11:03;;;;;;;4.93;1.00;;;;;;;4.18;64.34;100419.05;1719750;81;22915;-56
2022/02/26 08:13:30;;;;;;;2.20;0.80;;;;;;;4.21;64.22;100416.36;1729302;81;21375;-57
2022/02/26 08:15:57;;;;;;;3.20;0.80;;;;;;;4.24;63.81;100409.67;1723169;81;21775;-55
2022/02/26 08:18:23;;;;;;;1.83;0.73;;;;;;;4.30;63.65;100414.03;1733624;81;21512;-55
2022/02/26 08:20:49;;;;;;;4.67;0.77;;;;;;;4.38;63.31;100419.70;1725747;81;21078;-56
2022/02/26 08:23:16;;;;;;;2.30;0.70;;;;;;;4.44;62.56;100410.73;1736587;80;21066;-56
2022/02/26 08:25:42;;;;;;;1.80;0.80;;;;;;;4.48;61.63;100414.69;1732686;80;20938;-56
2022/02/26 08:28:09;;;;;;;3.50;0.63;;;;;;;4.53;61.50;100410.17;1721006;81;21119;-56
2022/02/26 08:30:36;;;;;;;1.53;0.50;;;;;;;4.61;60.04;100416.73;1740127;81;20947;-56
2022/02/26 08:33:03;;;;;;;1.13;0.50;;;;;;;4.67;59.65;100404.66;1735671;81;21105;-55
2022/02/26 08:35:29;;;;;;;3.03;0.60;;;;;;;4.76;59.78;100414.33;1735604;81;22051;-56
2022/02/26 08:37:55;;;;;;;4.17;1.43;;;;;;;4.84;59.49;100405.76;1723200;80;21124;-56
2022/02/26 08:40:22;;;;;;;2.30;0.60;;;;;;;4.93;59.23;100418.96;1734262;80;21606;-55
2022/02/26 08:42:48;;;;;;;3.67;0.40;;;;;;;5.00;58.59;100413.08;1724855;81;21088;-56
2022/02/26 08:45:14;;;;;;;3.30;0.43;;;;;;;5.06;57.38;100411.19;1730957;81;21096;-57
2022/02/26 08:47:42;;;;;;;0.77;0.27;;;;;;;5.15;55.86;100421.72;1736767;80;24079;-56
2022/02/26 08:50:13;;;;;;;1.13;0.30;;;;;;;5.21;54.76;100414.94;1729861;80;21065;-57
2022/02/26 08:52:40;;;;;;;3.03;0.20;;;;;;;5.28;53.21;100415.72;1730629;81;21613;-57
2022/02/26 08:55:07;;;;;;;0.90;0.20;;;;;;;5.31;53.15;100413.89;1724239;81;21676;-58
2022/02/26 08:57:35;;;;;;;2.83;0.30;;;;;;;5.34;52.29;100431.66;1733481;81;20934;-57
2022/02/26 09:00:04;;;;;;;0.53;0.20;;;;;;;5.38;51.56;100416.00;1739425;81;22343;-56
2022/02/26 09:02:31;;;;;;;0.50;0.20;;;;;;;5.43;52.00;100413.27;1714955;81;21253;-56
2022/02/26 09:04:57;;;;;;;0.50;0.20;;;;;;;5.48;51.11;100422.95;1728776;81;21443;-56
2022/02/26 09:07:23;;;;;;;0.50;0.20;;;;;;;5.45;49.60;100428.78;1725997;81;21060;-56
2022/02/26 09:09:51;;;;;;;1.40;0.20;;;;;;;5.44;50.58;100417.26;1724465;81;21123;-56
2022/02/26 09:12:18;;;;;;;1.90;0.10;;;;;;;5.44;49.18;100421.27;1718892;81;21166;-57
2022/02/26 09:14:44;;;;;;;0.97;0.20;;;;;;;5.49;49.70;100426.51;1719720;81;21086;-57
2022/02/26 09:17:12;;;;;;;1.10;0.20;;;;;;;5.53;49.17;100429.58;1733736;81;21076;-57
2022/02/26 09:19:39;;;;;;;0.90;0.10;;;;;;;5.57;49.14;100421.47;1690005;81;21112;-57
2022/02/26 09:22:05;;;;;;;1.80;0.10;;;;;;;5.64;48.65;100434.25;1724272;81;21434;-56
2022/02/26 09:24:33;;;;;;;2.00;0.20;;;;;;;5.68;47.96;100431.52;1731262;81;21399;-57
2022/02/26 09:26:59;;;;;;;1.27;0.20;;;;;;;5.72;49.07;100425.64;1725682;81;21120;-56
2022/02/26 09:29:26;;;;;;;0.93;0.20;;;;;;;5.78;48.74;100422.00;1728055;81;21179;-57
2022/02/26 09:31:53;;;;;;;1.57;0.20;;;;;;;5.79;47.57;100420.61;1731868;81;21509;-56
2022/02/26 09:34:20;;;;;;;1.23;0.23;;;;;;;5.81;48.13;100422.81;1732869;81;22580;-56
2022/02/26 09:36:47;;;;;;;0.83;0.40;;;;;;;5.83;47.79;100424.13;1726459;81;21550;-57
2022/02/26 09:39:14;;;;;;;1.60;0.20;;;;;;;5.86;47.27;100434.31;1723843;81;20934;-56
2022/02/26 09:41:42;;;;;;;1.97;0.20;;;;;;;5.88;46.80;100433.84;1736452;81;20985;-55
2022/02/26 09:44:18;;;;;;;1.30;0.20;;;;;;;5.89;46.34;100426.71;1728129;80;21139;-57
2022/02/26 09:46:45;;;;;;;0.40;0.20;;;;;;;5.91;46.27;100427.12;1738428;81;20984;-55
2022/02/26 09:49:11;;;;;;;0.50;0.10;;;;;;;5.96;46.31;100422.55;1733214;81;21445;-54
2022/02/26 09:51:43;;;;;;;0.73;0.10;;;;;;;5.98;46.00;100431.43;1699762;83;21455;-57
2022/02/26 09:54:09;;;;;;;1.57;0.10;;;;;;;6.03;46.46;100433.58;1706390;83;21013;-54
2022/02/26 09:56:37;;;;;;;0.37;0.20;;;;;;;6.09;45.70;100435.25;1657206;84;21034;-54
2022/02/26 09:59:04;;;;;;;0.30;0.20;;;;;;;6.16;46.01;100429.31;1666664;84;20938;-56
2022/02/26 10:01:31;;;;;;;1.23;0.30;;;;;;;6.19;46.00;100442.18;1668404;83;22521;-54
2022/02/26 10:04:09;;;;;;;1.17;0.20;;;;;;;6.23;45.88;100441.64;1663228;83;21439;-54
2022/02/26 10:06:56;;;;;;;1.00;0.30;;;;;;;6.28;45.47;100451.81;1661516;84;21401;-55
2022/02/26 10:09:22;;;;;;;1.87;0.30;;;;;;;6.30;45.28;100452.64;1635698;84;22415;-54
2022/02/26 10:11:49;;;;;;;0.97;0.20;;;;;;;6.33;45.27;100453.92;1621170;85;21649;-56
2022/02/26 10:14:17;;;;;;;0.30;0.10;;;;;;;6.40;45.28;100454.22;1641720;84;21940;-57
2022/02/26 10:16:58;;;;;;;0.70;0.10;;;;;;;6.49;43.39;100455.83;1650712;84;21005;-55
2022/02/26 10:19:31;;;;;;;1.80;0.20;;;;;;;6.54;43.29;100449.95;1633760;84;21082;-54
2022/02/26 10:22:01;;;;;;;0.67;0.20;;;;;;;6.56;43.51;100454.33;1627208;85;22883;-55
2022/02/26 10:24:29;;;;;;;0.60;0.10;;;;;;;6.60;42.19;100458.72;1641539;84;21459;-57
2022/02/26 10:27:00;;;;;;;0.30;0.10;;;;;;;6.61;41.97;100470.30;1629049;84;21666;-56
2022/02/26 10:29:27;;;;;;;0.20;0.10;;;;;;;6.65;42.03;100460.83;1586534;88;21632;-55
2022/02/26 10:31:56;;;;;;;0.27;0.10;;;;;;;6.69;42.21;100463.00;1623277;85;22376;-55
2022/02/26 10:34:35;;;;;;;0.10;0.00;;;;;;;6.75;42.45;100457.51;1641003;85;21096;-57
2022/02/26 10:37:10;;;;;;;0.40;0.27;;;;;;;6.81;39.73;100469.41;1637627;85;20974;-55
2022/02/26 10:39:52;;;;;;;0.57;0.10;;;;;;;6.87;40.07;100471.97;1651468;86;21071;-55
2022/02/26 10:42:28;;;;;;;0.20;0.10;;;;;;;6.90;39.27;100465.65;1648611;84;21128;-57
2022/02/26 10:45:13;;;;;;;0.40;0.10;;;;;;;6.92;38.77;100470.52;1635220;84;21074;-56
2022/02/26 10:47:43;;;;;;;0.57;0.10;;;;;;;6.93;39.39;100470.48;1622265;85;21097;-55
2022/02/26 10:50:21;;;;;;;0.10;0.10;;;;;;;6.96;39.23;100460.19;1630163;84;21492;-56
2022/02/26 10:52:59;;;;;;;0.50;0.10;;;;;;;6.97;38.66;100469.98;1632352;85;22788;-57
2022/02/26 10:55:59;;;;;;;0.47;0.10;;;;;;;6.94;37.96;100468.70;1643556;84;21706;-57
2022/02/26 10:58:27;;;;;;;0.93;0.10;;;;;;;6.89;37.68;100463.42;1609242;86;21507;-56
2022/02/26 11:01:07;;;;;;;0.30;0.10;;;;;;;6.87;38.71;100464.40;1607235;86;21449;-55
2022/02/26 11:03:34;;;;;;;0.87;0.20;;;;;;;6.88;39.10;100461.70;1610902;86;21036;-53
2022/02/26 11:06:08;;;;;;;0.20;0.10;;;;;;;6.89;38.83;100467.44;1619873;86;21042;-55
2022/02/26 11:08:35;;;;;;;1.13;0.17;;;;;;;6.90;39.07;100467.87;1614044;86;21996;-56
2022/02/26 11:11:04;;;;;;;1.47;0.20;;;;;;;6.94;39.04;100472.25;1621188;86;21575;-56
2022/02/26 11:13:33;;;;;;;1.00;0.10;;;;;;;6.95;39.24;100470.46;1581729;88;21000;-55
2022/02/26 11:16:01;;;;;;;0.37;0.10;;;;;;;6.95;39.38;100470.46;1600087;87;21055;-57
2022/02/26 11:18:41;;;;;;;0.28;0.20;;;;;;;6.98;39.76;100474.39;1580997;88;21172;-55
2022/02/26 11:21:09;;;;;;;0.33;0.10;;;;;;;7.03;39.74;100477.86;1601180;86;21737;-57
2022/02/26 11:23:38;;;;;;;0.43;0.23;;;;;;;7.09;39.72;100479.05;1583942;88;20916;-56
2022/02/26 11:26:08;;;;;;;0.47;0.20;;;;;;;7.11;39.36;100479.91;1624271;86;21226;-56
2022/02/26 11:28:36;;;;;;;0.83;0.17;;;;;;;7.11;38.67;100483.92;1614135;86;20954;-55
2022/02/26 11:31:09;;;;;;;0.33;0.20;;;;;;;7.11;38.93;100484.81;1625659;86;21798;-57
2022/02/26 11:33:38;;;;;;;1.13;0.10;;;;;;;7.07;38.78;100487.11;1625440;86;20951;-56
2022/02/26 11:36:05;;;;;;;0.83;0.27;;;;;;;7.08;39.01;100481.30;1625767;86;20902;-55